中部国際空港の過去48時間の天気

中部国際空港 (Chubu Centrair International)

現在時刻: 9/19 07:16 JST (9/18 22:16 UTC) 以下の時間は現地時間です。

過去48時間のMETAR気象情報
時間 風向 風速(m/s) 視程 気温(℃) 湿度(%) 気圧(hPa) 天気現象
19 07:00 北西 8 10km以上 24 78 1010
19 06:30 北西 7 10km以上 24 78 1009
19 06:00 北西 7 10km以上 24 78 1009
19 05:30 北西 8 10km以上 24 78 1009
19 05:00 北西 9 10km以上 24 78 1009
19 04:30 北西 7 10km以上 24 78 1009
RJGG 182200Z 31015KT 9999 FEW020 24/20 Q1010 NOSIG
RJGG 182130Z 31014KT 9999 FEW020 24/20 Q1009 NOSIG
RJGG 182100Z 31014KT 9999 FEW020 24/20 Q1009 NOSIG
RJGG 182030Z 31016KT 9999 FEW020 24/20 Q1009 NOSIG
RJGG 182000Z 31017KT 9999 FEW020 24/20 Q1009 NOSIG
RJGG 181930Z 31014KT 9999 FEW020 24/20 Q1009 NOSIG